Thurles, Ireland
Current Conditions -  °F | °C
As of 12:00 PM on Friday 28 Nov 2014 (Local Time) from EIWF Reporting Station
Broken Clouds Broken Clouds  
Wind Chill: 52°   Ceiling: 1500
Heat Index: 52°   Visibility: 6mi
Dew Point: 48°   Wind: 15mph
Humidity: 88%   Direction: 110°ESE
Pressure: 29.53"   Gusts: NA
Location:  52.68°N, 7.48°W
Report Text: EIWF 281100Z 11013KT 9999 BKN015 11/09 Q1000
Loading
Personal Weather Stations






























Interactive Weather Map New forecast layout! Learn more

10-Day Weather Forecast

Advertisements
Track Severe Weather on mobile